createdAt,value
2023-02-27T00:00:14.884Z,66.16
2023-02-27T00:02:46.788Z,65.49
2023-02-27T00:05:14.074Z,65.72
2023-02-27T00:07:40.804Z,65.65
2023-02-27T00:10:11.125Z,65.31
2023-02-27T00:12:38.948Z,65.79
2023-02-27T00:15:07.561Z,64.60
2023-02-27T00:17:34.443Z,64.64
2023-02-27T00:20:01.293Z,63.34
2023-02-27T00:22:28.155Z,64.16
2023-02-27T00:24:54.885Z,65.04
2023-02-27T00:27:21.649Z,65.32
2023-02-27T00:29:53.229Z,65.26
2023-02-27T00:32:19.918Z,63.53
2023-02-27T00:34:49.303Z,66.41
2023-02-27T00:37:16.170Z,65.46
2023-02-27T00:39:43.066Z,65.74
2023-02-27T00:42:13.014Z,64.51
2023-02-27T00:44:40.826Z,65.59
2023-02-27T00:47:08.006Z,64.40
2023-02-27T00:49:34.713Z,66.25
2023-02-27T00:52:01.514Z,66.10
2023-02-27T00:54:28.172Z,66.80
2023-02-27T00:56:54.765Z,69.37
2023-02-27T00:59:21.718Z,70.54
2023-02-27T01:01:48.384Z,69.93
2023-02-27T01:04:15.262Z,70.52
2023-02-27T01:06:41.822Z,68.80
2023-02-27T01:09:08.403Z,66.70
2023-02-27T01:11:35.133Z,69.67
2023-02-27T01:14:02.346Z,69.13
2023-02-27T01:16:29.679Z,66.37
2023-02-27T01:18:56.413Z,67.61
2023-02-27T01:21:23.702Z,65.95
2023-02-27T01:23:50.737Z,67.00
2023-02-27T01:26:19.106Z,67.71
2023-02-27T01:28:45.941Z,67.05
2023-02-27T01:31:12.736Z,66.86
2023-02-27T01:33:39.356Z,70.12
2023-02-27T01:36:06.253Z,69.95
2023-02-27T01:38:32.915Z,69.17
2023-02-27T01:41:00.793Z,69.31
2023-02-27T01:43:27.883Z,71.68
2023-02-27T01:45:54.850Z,69.85
2023-02-27T01:48:30.542Z,70.88
2023-02-27T01:51:04.922Z,68.80
2023-02-27T01:53:34.565Z,68.30
2023-02-27T01:56:07.451Z,68.53
2023-02-27T01:58:34.479Z,65.12
2023-02-27T02:01:02.164Z,67.76
2023-02-27T02:03:39.177Z,67.00
2023-02-27T02:06:07.251Z,68.26
2023-02-27T02:08:42.833Z,68.03
2023-02-27T02:11:10.240Z,68.17
2023-02-27T02:13:40.311Z,67.65
2023-02-27T02:16:20.458Z,67.42
2023-02-27T02:18:57.696Z,67.60
2023-02-27T02:21:46.200Z,67.45
2023-02-27T02:24:25.472Z,66.19
2023-02-27T02:26:55.170Z,66.26
2023-02-27T02:29:52.848Z,66.42
2023-02-27T02:32:56.870Z,68.07
2023-02-27T02:35:41.470Z,67.72
2023-02-27T02:38:44.959Z,66.29
2023-02-27T02:41:38.503Z,66.44
2023-02-27T02:44:19.542Z,65.43
2023-02-27T02:47:14.309Z,65.32
2023-02-27T02:49:55.641Z,64.62
2023-02-27T02:52:39.292Z,66.47
2023-02-27T02:55:14.357Z,68.47
2023-02-27T02:57:51.717Z,69.45
2023-02-27T03:00:23.995Z,70.02
2023-02-27T03:02:58.825Z,68.25
2023-02-27T03:05:32.861Z,68.47
2023-02-27T03:08:08.205Z,68.11
2023-02-27T03:10:44.513Z,68.81
2023-02-27T03:13:36.027Z,66.88
2023-02-27T03:16:13.944Z,66.58
2023-02-27T03:18:48.364Z,66.68
2023-02-27T03:21:22.786Z,68.01
2023-02-27T03:23:53.408Z,69.72
2023-02-27T03:26:24.722Z,68.19
2023-02-27T03:29:00.873Z,67.99
2023-02-27T03:31:38.030Z,67.44
2023-02-27T03:34:16.937Z,70.07
2023-02-27T03:36:49.908Z,69.11
2023-02-27T03:39:40.336Z,66.71
2023-02-27T03:42:24.441Z,66.11
2023-02-27T03:45:05.724Z,64.98
2023-02-27T03:47:34.327Z,65.58
2023-02-27T03:50:01.568Z,65.27
2023-02-27T03:52:30.101Z,65.18
2023-02-27T03:55:01.834Z,64.01
2023-02-27T03:57:30.710Z,66.85
2023-02-27T03:59:58.168Z,66.31
2023-02-27T04:02:25.102Z,65.32
2023-02-27T04:04:51.885Z,69.34
2023-02-27T04:07:44.868Z,69.11
2023-02-27T04:10:26.538Z,67.20
2023-02-27T04:13:16.144Z,65.60
2023-02-27T04:16:07.326Z,66.10
2023-02-27T04:19:01.089Z,66.92
2023-02-27T04:21:46.384Z,68.08
2023-02-27T04:24:30.185Z,66.20
2023-02-27T04:27:31.670Z,65.60
2023-02-27T04:30:24.739Z,64.96
2023-02-27T04:33:07.385Z,64.03
2023-02-27T04:35:49.742Z,65.31
2023-02-27T04:38:37.404Z,65.69
2023-02-27T04:41:12.019Z,64.68
2023-02-27T04:43:41.845Z,64.14
2023-02-27T04:46:13.018Z,65.39
2023-02-27T04:49:02.741Z,66.61
2023-02-27T04:51:36.489Z,65.97
2023-02-27T04:54:10.786Z,64.45
2023-02-27T04:57:02.245Z,63.49
2023-02-27T04:59:34.086Z,65.90
2023-02-27T05:02:25.066Z,68.95
2023-02-27T05:04:56.839Z,69.86
2023-02-27T05:07:29.325Z,68.49
2023-02-27T05:10:21.983Z,65.19
2023-02-27T05:12:54.188Z,66.91
2023-02-27T05:15:49.414Z,70.04
2023-02-27T05:18:19.335Z,71.83
2023-02-27T05:21:19.748Z,72.61
2023-02-27T05:24:30.934Z,73.26
2023-02-27T05:27:09.966Z,73.34
2023-02-27T05:29:50.991Z,71.30
2023-02-27T05:32:45.306Z,70.24
2023-02-27T05:35:24.577Z,70.37
2023-02-27T05:38:05.513Z,72.16
2023-02-27T05:40:37.066Z,68.98
2023-02-27T05:43:16.866Z,68.48
2023-02-27T05:45:47.280Z,67.95
2023-02-27T05:48:24.888Z,66.11
2023-02-27T05:50:53.628Z,66.29
2023-02-27T05:53:22.162Z,66.44
2023-02-27T05:55:58.997Z,69.09
2023-02-27T05:58:45.877Z,70.05
2023-02-27T06:01:12.991Z,69.01
2023-02-27T06:03:41.066Z,71.84
2023-02-27T06:06:19.045Z,71.19
2023-02-27T06:08:46.495Z,68.49
2023-02-27T06:11:13.290Z,67.37
2023-02-27T06:13:42.001Z,68.07
2023-02-27T06:16:12.707Z,67.49
2023-02-27T06:18:39.428Z,68.88
2023-02-27T06:21:06.588Z,69.71
2023-02-27T06:23:33.245Z,69.10
2023-02-27T06:26:00.143Z,68.78
2023-02-27T06:28:26.741Z,69.47
2023-02-27T06:30:55.066Z,68.44
2023-02-27T06:33:21.717Z,66.24
2023-02-27T06:35:49.459Z,67.40
2023-02-27T06:38:16.391Z,66.96
2023-02-27T06:40:42.976Z,68.97
2023-02-27T06:43:10.158Z,69.87
2023-02-27T06:45:36.733Z,69.14
2023-02-27T06:48:03.487Z,70.07
2023-02-27T06:50:30.051Z,68.75
2023-02-27T06:52:56.663Z,67.09
2023-02-27T06:55:24.997Z,66.28
2023-02-27T06:57:51.719Z,67.38
2023-02-27T07:00:18.870Z,67.21
2023-02-27T07:02:45.684Z,67.17
2023-02-27T07:05:12.359Z,67.92
2023-02-27T07:07:39.605Z,69.76
2023-02-27T07:10:09.434Z,70.99
2023-02-27T07:12:36.104Z,70.38
2023-02-27T07:15:03.526Z,68.34
2023-02-27T07:17:30.174Z,68.61
2023-02-27T07:19:56.979Z,69.18
2023-02-27T07:22:23.709Z,69.93
2023-02-27T07:24:50.227Z,71.58
2023-02-27T07:27:16.829Z,70.98
2023-02-27T07:29:43.460Z,71.83
2023-02-27T07:32:11.319Z,72.05
2023-02-27T07:34:38.378Z,71.72
2023-02-27T07:37:05.054Z,70.63
2023-02-27T07:39:31.572Z,70.12
2023-02-27T07:42:00.030Z,69.28
2023-02-27T07:44:26.577Z,69.03
2023-02-27T07:46:53.280Z,67.23
2023-02-27T07:49:19.942Z,67.13
2023-02-27T07:51:46.565Z,66.18
2023-02-27T07:54:13.150Z,65.21
2023-02-27T07:56:39.795Z,63.36
2023-02-27T07:59:06.362Z,65.35
2023-02-27T08:01:33.010Z,66.09
2023-02-27T08:03:59.561Z,66.13
2023-02-27T08:06:26.418Z,68.57
2023-02-27T08:08:53.384Z,68.36
2023-02-27T08:11:20.016Z,68.66
2023-02-27T08:14:02.883Z,68.93
2023-02-27T08:16:31.983Z,68.55
2023-02-27T08:18:59.832Z,67.21
2023-02-27T08:21:27.228Z,66.65
2023-02-27T08:23:54.570Z,66.23
2023-02-27T08:26:21.779Z,65.69
2023-02-27T08:28:48.419Z,65.88
2023-02-27T08:31:15.124Z,65.81
2023-02-27T08:33:41.781Z,66.32
2023-02-27T08:36:08.568Z,66.92
2023-02-27T08:38:35.163Z,67.08
2023-02-27T08:41:01.833Z,66.12
2023-02-27T08:43:28.404Z,66.50
2023-02-27T08:45:55.066Z,65.45
2023-02-27T08:48:24.278Z,65.73
2023-02-27T08:50:51.552Z,65.16
2023-02-27T08:53:18.512Z,64.54
2023-02-27T08:55:50.043Z,65.02
2023-02-27T08:58:18.210Z,64.74
2023-02-27T09:00:45.371Z,64.89
2023-02-27T09:03:12.121Z,64.08
2023-02-27T09:05:38.747Z,65.04
2023-02-27T09:08:05.788Z,65.82
2023-02-27T09:10:35.372Z,64.97
2023-02-27T09:13:02.234Z,65.44
2023-02-27T09:15:30.265Z,65.13
2023-02-27T09:18:02.369Z,65.14
2023-02-27T09:20:31.594Z,64.50
2023-02-27T09:22:59.262Z,64.80
2023-02-27T09:25:26.395Z,64.27
2023-02-27T09:27:52.979Z,62.78
2023-02-27T09:30:19.689Z,63.35
2023-02-27T09:32:46.566Z,63.54
2023-02-27T09:35:15.789Z,64.14
2023-02-27T09:37:43.923Z,64.51
2023-02-27T09:40:31.771Z,65.14
2023-02-27T09:43:04.238Z,65.43
2023-02-27T09:45:36.564Z,65.50
2023-02-27T09:48:11.951Z,65.80
2023-02-27T09:50:45.116Z,64.57
2023-02-27T09:53:31.129Z,63.31
2023-02-27T09:56:07.451Z,62.02
2023-02-27T09:58:57.939Z,63.00
2023-02-27T10:01:37.112Z,63.56
2023-02-27T10:04:30.417Z,63.79
2023-02-27T10:07:25.829Z,64.45
2023-02-27T10:09:56.995Z,64.56
2023-02-27T10:12:52.466Z,64.27
2023-02-27T10:15:36.475Z,63.78
2023-02-27T10:18:28.170Z,64.45
2023-02-27T10:21:00.114Z,64.77
2023-02-27T10:23:42.993Z,64.90
2023-02-27T10:26:26.590Z,65.22
2023-02-27T10:28:53.233Z,64.98
2023-02-27T10:31:28.239Z,64.75
2023-02-27T10:33:57.372Z,65.05
2023-02-27T10:36:33.517Z,64.86
2023-02-27T10:39:08.952Z,64.82
2023-02-27T10:41:36.398Z,64.64
2023-02-27T10:44:03.531Z,64.97
2023-02-27T10:46:34.185Z,65.13
2023-02-27T10:49:05.479Z,64.64
2023-02-27T10:51:38.099Z,63.59
2023-02-27T10:54:25.030Z,64.79
2023-02-27T10:56:57.228Z,63.93
2023-02-27T10:59:25.887Z,63.91
2023-02-27T11:02:01.469Z,64.32
2023-02-27T11:04:40.203Z,63.87
2023-02-27T11:07:11.588Z,63.86
2023-02-27T11:09:38.440Z,63.90
2023-02-27T11:12:26.095Z,63.70
2023-02-27T11:14:55.808Z,63.71
2023-02-27T11:17:23.724Z,63.48
2023-02-27T11:19:50.381Z,63.78
2023-02-27T11:22:24.252Z,63.86
2023-02-27T11:24:53.120Z,63.67
2023-02-27T11:27:22.001Z,64.29
2023-02-27T11:30:03.869Z,64.70
2023-02-27T11:32:43.636Z,64.64
2023-02-27T11:35:25.603Z,62.88
2023-02-27T11:37:55.178Z,63.20
2023-02-27T11:40:26.814Z,63.15
2023-02-27T11:42:57.360Z,62.91
2023-02-27T11:46:05.137Z,63.36
2023-02-27T11:48:30.783Z,62.94
2023-02-27T11:51:19.306Z,62.81
2023-02-27T11:54:27.830Z,63.94
2023-02-27T11:57:04.964Z,63.27
2023-02-27T11:59:55.680Z,62.51
2023-02-27T12:02:43.570Z,63.85
2023-02-27T12:05:20.570Z,63.19
2023-02-27T12:07:54.398Z,63.47
2023-02-27T12:10:24.820Z,62.60
2023-02-27T12:13:17.500Z,62.91
2023-02-27T12:15:55.844Z,62.66
2023-02-27T12:18:37.861Z,62.97
2023-02-27T12:21:10.363Z,63.36
2023-02-27T12:23:50.780Z,61.58
2023-02-27T12:26:33.826Z,62.31
2023-02-27T12:29:11.835Z,62.56
2023-02-27T12:31:48.209Z,62.42
2023-02-27T12:34:36.650Z,62.42
2023-02-27T12:37:10.268Z,63.67
2023-02-27T12:39:38.381Z,62.26
2023-02-27T12:42:42.584Z,63.26
2023-02-27T12:45:21.384Z,62.45
2023-02-27T12:48:26.458Z,62.83
2023-02-27T12:51:20.933Z,63.81
2023-02-27T12:53:53.284Z,62.35
2023-02-27T12:56:23.811Z,63.01
2023-02-27T12:59:27.675Z,62.16
2023-02-27T13:02:04.544Z,63.24
2023-02-27T13:04:36.772Z,63.36
2023-02-27T13:07:19.180Z,61.40
2023-02-27T13:09:51.968Z,61.66
2023-02-27T13:13:00.197Z,62.70
2023-02-27T13:16:03.280Z,62.68
2023-02-27T13:18:45.360Z,62.18
2023-02-27T13:21:19.004Z,62.26
2023-02-27T13:24:23.843Z,59.60
2023-02-27T13:26:55.810Z,60.46
2023-02-27T13:29:24.576Z,61.29
2023-02-27T13:32:06.486Z,62.09
2023-02-27T13:34:52.383Z,63.15
2023-02-27T13:37:19.152Z,63.71
2023-02-27T13:39:45.898Z,62.20
2023-02-27T13:42:27.727Z,61.47
2023-02-27T13:44:56.604Z,61.52
2023-02-27T13:47:29.124Z,61.98
2023-02-27T13:49:57.522Z,61.36
2023-02-27T13:52:33.500Z,60.82
2023-02-27T13:55:11.164Z,61.55
2023-02-27T13:57:39.401Z,60.60
2023-02-27T14:00:21.432Z,62.02
2023-02-27T14:03:00.194Z,63.10
2023-02-27T14:05:47.197Z,62.82
2023-02-27T14:08:24.593Z,61.99
2023-02-27T14:10:57.965Z,61.60
2023-02-27T14:13:46.431Z,62.82
2023-02-27T14:16:33.484Z,61.38
2023-02-27T14:19:01.928Z,62.12
2023-02-27T14:22:00.248Z,58.08
2023-02-27T14:24:44.771Z,61.85
2023-02-27T14:27:22.515Z,62.30
2023-02-27T14:29:51.595Z,63.13
2023-02-27T14:32:28.644Z,62.96
2023-02-27T14:34:55.714Z,63.05
2023-02-27T14:37:25.098Z,63.46
2023-02-27T14:39:54.574Z,63.67
2023-02-27T14:42:49.142Z,64.29
2023-02-27T14:45:24.514Z,64.22
2023-02-27T14:47:53.017Z,64.16
2023-02-27T14:50:27.463Z,64.56
2023-02-27T14:52:54.563Z,62.92
2023-02-27T14:55:30.166Z,63.54
2023-02-27T14:58:01.037Z,55.20
2023-02-27T15:00:50.694Z,60.39
2023-02-27T15:03:23.683Z,60.05
2023-02-27T15:05:53.146Z,58.87
2023-02-27T15:08:23.744Z,61.45
2023-02-27T15:10:52.970Z,56.23
2023-02-27T15:13:31.789Z,54.32
2023-02-27T15:16:23.396Z,55.61
2023-02-27T15:18:54.973Z,56.24
2023-02-27T15:21:25.337Z,52.04
2023-02-27T15:24:03.793Z,53.24
2023-02-27T15:26:35.642Z,53.51
2023-02-27T15:29:05.170Z,57.23
2023-02-27T15:31:32.404Z,54.66
2023-02-27T15:34:01.340Z,54.20
2023-02-27T15:36:34.401Z,57.39
2023-02-27T15:39:17.363Z,54.32
2023-02-27T15:41:50.723Z,55.56
2023-02-27T15:44:26.083Z,53.54
2023-02-27T15:46:55.378Z,53.65
2023-02-27T15:49:24.248Z,55.90
2023-02-27T15:52:05.567Z,55.57
2023-02-27T15:54:34.843Z,53.41
2023-02-27T15:57:04.575Z,55.18
2023-02-27T15:59:35.811Z,57.78
2023-02-27T16:02:04.497Z,57.35
2023-02-27T16:04:33.189Z,55.30
2023-02-27T16:07:05.091Z,53.43
2023-02-27T16:09:35.369Z,54.80
2023-02-27T16:12:22.962Z,58.13
2023-02-27T16:14:55.719Z,58.59
2023-02-27T16:17:31.297Z,53.58
2023-02-27T16:20:01.926Z,57.41
2023-02-27T16:22:30.471Z,58.60
2023-02-27T16:25:09.509Z,59.94
2023-02-27T16:27:36.418Z,58.21
2023-02-27T16:30:10.787Z,58.21
2023-02-27T16:32:46.614Z,59.11
2023-02-27T16:35:23.428Z,58.97
2023-02-27T16:37:50.672Z,59.59
2023-02-27T16:40:22.553Z,59.20
2023-02-27T16:42:50.620Z,59.14
2023-02-27T16:45:21.158Z,59.59
2023-02-27T16:47:59.161Z,60.47
2023-02-27T16:50:33.538Z,60.09
2023-02-27T16:53:00.497Z,60.39
2023-02-27T16:55:27.531Z,61.76
2023-02-27T16:57:54.208Z,62.52
2023-02-27T17:00:22.584Z,62.01
2023-02-27T17:02:49.605Z,61.78
2023-02-27T17:05:16.807Z,61.87
2023-02-27T17:07:44.770Z,61.80
2023-02-27T17:10:16.056Z,61.91
2023-02-27T17:12:44.001Z,61.96
2023-02-27T17:15:10.756Z,61.50
2023-02-27T17:17:37.420Z,61.97
2023-02-27T17:20:07.305Z,62.69
2023-02-27T17:22:36.380Z,63.26
2023-02-27T17:25:03.695Z,61.32
2023-02-27T17:27:30.474Z,61.72
2023-02-27T17:29:57.532Z,62.57
2023-02-27T17:32:24.248Z,62.41
2023-02-27T17:34:55.600Z,62.57
2023-02-27T17:37:23.215Z,62.85
2023-02-27T17:39:49.845Z,63.34
2023-02-27T17:42:18.501Z,63.71
2023-02-27T17:44:48.542Z,62.76
2023-02-27T17:47:15.302Z,62.63
2023-02-27T17:49:44.920Z,62.19
2023-02-27T17:52:11.537Z,63.73
2023-02-27T17:54:38.353Z,63.73
2023-02-27T17:57:11.618Z,62.26
2023-02-27T17:59:44.371Z,62.51
2023-02-27T18:02:14.087Z,62.39
2023-02-27T18:04:40.820Z,62.98
2023-02-27T18:07:07.360Z,63.29
2023-02-27T18:09:34.110Z,64.00
2023-02-27T18:12:00.740Z,63.62
2023-02-27T18:14:27.365Z,64.66
2023-02-27T18:16:54.033Z,64.41
2023-02-27T18:19:20.680Z,64.52
2023-02-27T18:21:47.338Z,63.82
2023-02-27T18:24:15.898Z,63.58
2023-02-27T18:26:42.849Z,63.84
2023-02-27T18:29:11.535Z,63.67
2023-02-27T18:31:41.419Z,63.34
2023-02-27T18:34:08.642Z,64.07
2023-02-27T18:36:36.141Z,63.38
2023-02-27T18:39:05.459Z,61.81
2023-02-27T18:41:32.623Z,63.84
2023-02-27T18:43:59.463Z,64.79
2023-02-27T18:46:26.714Z,66.01
2023-02-27T18:48:53.805Z,64.96
2023-02-27T18:51:20.502Z,64.66
2023-02-27T18:53:49.086Z,65.06
2023-02-27T18:56:19.277Z,65.29
2023-02-27T18:58:46.453Z,65.80
2023-02-27T19:01:25.788Z,65.35
2023-02-27T19:03:55.983Z,63.74
2023-02-27T19:06:22.625Z,63.81
2023-02-27T19:08:49.251Z,63.27
2023-02-27T19:11:23.961Z,63.61
2023-02-27T19:13:50.572Z,64.39
2023-02-27T19:16:17.269Z,63.72
2023-02-27T19:18:43.886Z,64.27
2023-02-27T19:21:10.516Z,65.22
2023-02-27T19:23:39.024Z,64.83
2023-02-27T19:26:05.806Z,65.99
2023-02-27T19:28:33.118Z,64.30
2023-02-27T19:30:59.795Z,65.04
2023-02-27T19:33:26.463Z,64.53
2023-02-27T19:35:53.298Z,64.04
2023-02-27T19:38:20.020Z,64.54
2023-02-27T19:40:46.697Z,64.18
2023-02-27T19:43:15.267Z,64.49
2023-02-27T19:45:42.158Z,65.62
2023-02-27T19:48:09.156Z,64.38
2023-02-27T19:50:35.849Z,63.31
2023-02-27T19:53:02.474Z,64.16
2023-02-27T19:55:29.028Z,65.00
2023-02-27T19:57:55.567Z,65.81
2023-02-27T20:00:22.488Z,66.27
2023-02-27T20:02:49.126Z,67.74
2023-02-27T20:05:15.885Z,66.23
2023-02-27T20:07:42.577Z,65.32
2023-02-27T20:10:10.552Z,65.27
2023-02-27T20:12:37.158Z,64.39
2023-02-27T20:15:08.738Z,64.37
2023-02-27T20:17:35.790Z,65.47
2023-02-27T20:20:04.885Z,67.17
2023-02-27T20:22:35.407Z,65.77
2023-02-27T20:25:02.057Z,65.82
2023-02-27T20:27:28.915Z,64.38
2023-02-27T20:29:57.348Z,64.83
2023-02-27T20:32:25.152Z,64.50
2023-02-27T20:34:53.148Z,65.14
2023-02-27T20:37:21.405Z,66.02
2023-02-27T20:39:49.513Z,66.96
2023-02-27T20:42:16.504Z,66.42
2023-02-27T20:44:43.191Z,64.58
2023-02-27T20:47:10.447Z,66.13
2023-02-27T20:49:38.534Z,64.78
2023-02-27T20:52:05.350Z,64.60
2023-02-27T20:54:32.531Z,64.92
2023-02-27T20:56:59.369Z,65.29
2023-02-27T20:59:26.225Z,64.65
2023-02-27T21:01:53.766Z,64.08
2023-02-27T21:04:22.267Z,64.87
2023-02-27T21:06:49.884Z,66.10
2023-02-27T21:09:16.626Z,64.93
2023-02-27T21:11:43.320Z,63.85
2023-02-27T21:14:11.440Z,63.15
2023-02-27T21:16:40.084Z,64.33
2023-02-27T21:19:07.369Z,65.04
2023-02-27T21:21:35.108Z,63.39
2023-02-27T21:24:02.061Z,63.68
2023-02-27T21:26:35.566Z,63.98
2023-02-27T21:29:11.639Z,62.92
2023-02-27T21:31:39.495Z,63.81
2023-02-27T21:34:08.642Z,63.17
2023-02-27T21:36:43.787Z,65.65
2023-02-27T21:39:18.930Z,63.79
2023-02-27T21:41:46.456Z,64.83
2023-02-27T21:44:15.580Z,64.67
2023-02-27T21:46:42.996Z,65.45
2023-02-27T21:49:16.221Z,66.46
2023-02-27T21:51:43.170Z,63.84
2023-02-27T21:54:11.866Z,64.26
2023-02-27T21:56:39.610Z,64.49
2023-02-27T21:59:06.748Z,66.14
2023-02-27T22:01:33.945Z,65.27
2023-02-27T22:04:01.892Z,64.90
2023-02-27T22:06:33.431Z,65.05
2023-02-27T22:09:04.798Z,63.49
2023-02-27T22:11:32.970Z,62.97
2023-02-27T22:13:59.737Z,63.54
2023-02-27T22:16:27.765Z,63.49
2023-02-27T22:18:54.416Z,62.60
2023-02-27T22:21:24.116Z,63.63
2023-02-27T22:23:51.044Z,64.53
2023-02-27T22:26:20.989Z,63.93
2023-02-27T22:28:47.681Z,62.58
2023-02-27T22:31:15.872Z,63.77
2023-02-27T22:33:43.901Z,65.42
2023-02-27T22:36:13.274Z,64.76
2023-02-27T22:38:40.388Z,63.90
2023-02-27T22:41:09.368Z,64.24
2023-02-27T22:43:38.238Z,63.96
2023-02-27T22:46:05.805Z,65.45
2023-02-27T22:48:32.669Z,63.42
2023-02-27T22:51:03.145Z,63.91
2023-02-27T22:53:38.352Z,64.45
2023-02-27T22:56:10.644Z,63.95
2023-02-27T22:58:38.983Z,64.55
2023-02-27T23:01:09.557Z,65.13
2023-02-27T23:03:36.847Z,64.10
2023-02-27T23:06:04.888Z,65.02
2023-02-27T23:08:31.555Z,63.56
2023-02-27T23:10:58.438Z,65.56
2023-02-27T23:13:25.473Z,66.49
2023-02-27T23:15:52.031Z,66.88
2023-02-27T23:18:18.609Z,65.21
2023-02-27T23:20:45.169Z,65.65
2023-02-27T23:23:11.766Z,65.20
2023-02-27T23:25:38.844Z,64.84
2023-02-27T23:28:06.751Z,63.67
2023-02-27T23:30:34.355Z,64.90
2023-02-27T23:33:00.969Z,63.24
2023-02-27T23:35:28.552Z,65.54
2023-02-27T23:37:57.597Z,65.74
2023-02-27T23:40:27.228Z,67.36
2023-02-27T23:42:54.697Z,66.39
2023-02-27T23:45:24.115Z,66.53
2023-02-27T23:47:59.589Z,64.11
2023-02-27T23:50:36.176Z,66.39
2023-02-27T23:53:04.186Z,68.50
2023-02-27T23:55:32.713Z,68.45
2023-02-27T23:58:01.067Z,66.44
